Time;durP1;ratioP1;P1;durP2;ratioP2;P2;SDS_P1;SDS_P2;PMS_P1;PMS_P2;Temp;Humidity;BMP_temperature;BMP_pressure;BME280_temperature;BME280_humidity;BME280_pressure;Samples;Min_cycle;Max_cycle;Signal;HPM_P1;HPM_P2
2023/04/26 00:01:44;;;;;;;13.57;4.95;;;6.30;99.90;;;;;;5010351;28;20183;-86
2023/04/26 00:04:12;;;;;;;10.73;5.63;;;6.20;99.90;;;;;;5014082;28;20203;-86
2023/04/26 00:06:38;;;;;;;11.25;5.60;;;6.20;99.90;;;;;;5020744;28;20278;-84
2023/04/26 00:09:04;;;;;;;8.27;4.77;;;6.20;99.90;;;;;;5012488;28;20624;-86
2023/04/26 00:11:30;;;;;;;9.98;4.78;;;6.10;99.90;;;;;;5006629;28;20198;-86
2023/04/26 00:13:57;;;;;;;8.53;4.97;;;6.10;99.90;;;;;;5013094;28;20203;-85
2023/04/26 00:16:23;;;;;;;16.70;5.57;;;6.10;99.90;;;;;;5008164;28;20472;-86
2023/04/26 00:18:48;;;;;;;7.13;4.40;;;6.10;99.90;;;;;;5014752;28;20540;-86
2023/04/26 00:21:14;;;;;;;12.97;5.10;;;6.10;99.90;;;;;;4996208;28;20191;-86
2023/04/26 00:23:41;;;;;;;7.27;4.60;;;6.10;99.90;;;;;;5012472;28;20213;-86
2023/04/26 00:26:06;;;;;;;10.13;4.53;;;6.10;99.90;;;;;;5009004;28;20469;-86
2023/04/26 00:28:32;;;;;;;11.30;5.00;;;6.00;99.90;;;;;;5011968;28;20249;-86
2023/04/26 00:30:57;;;;;;;11.17;5.23;;;6.00;99.90;;;;;;5013164;28;20430;-87
2023/04/26 00:33:23;;;;;;;14.77;5.07;;;6.00;99.90;;;;;;5010481;28;20206;-87
2023/04/26 00:35:49;;;;;;;6.93;5.07;;;6.00;99.90;;;;;;4999553;28;20492;-87
2023/04/26 00:38:14;;;;;;;9.10;4.87;;;5.90;99.90;;;;;;5013373;28;20225;-86
2023/04/26 00:40:45;;;;;;;11.53;4.90;;;5.90;99.90;;;;;;5010667;28;20187;-87
2023/04/26 00:43:11;;;;;;;8.13;4.80;;;5.90;99.90;;;;;;5011323;28;20245;-87
2023/04/26 00:45:36;;;;;;;11.07;4.70;;;5.80;99.90;;;;;;5005463;28;20689;-87
2023/04/26 00:48:02;;;;;;;14.63;5.20;;;5.80;99.90;;;;;;5009664;28;20199;-87
2023/04/26 00:50:30;;;;;;;7.82;5.00;;;5.80;99.90;;;;;;5011522;28;20242;-86
2023/04/26 00:52:57;;;;;;;13.38;5.60;;;5.80;99.90;;;;;;4998482;28;20183;-85
2023/04/26 00:55:25;;;;;;;7.78;4.65;;;5.80;99.90;;;;;;5011089;28;20179;-86
2023/04/26 00:57:52;;;;;;;13.80;4.93;;;5.70;99.90;;;;;;5011076;28;20565;-86
2023/04/26 01:00:17;;;;;;;9.45;5.85;;;5.70;99.90;;;;;;5011873;28;20202;-87
2023/04/26 01:02:43;;;;;;;10.50;4.70;;;5.70;99.90;;;;;;5005090;28;20211;-87
2023/04/26 01:05:09;;;;;;;11.33;5.00;;;5.70;99.90;;;;;;5003001;28;20492;-87
2023/04/26 01:07:37;;;;;;;9.60;5.25;;;5.70;99.90;;;;;;5012912;28;20182;-87
2023/04/26 01:10:08;;;;;;;14.38;5.63;;;5.60;99.90;;;;;;5010298;28;20230;-86
2023/04/26 01:12:35;;;;;;;12.20;5.57;;;5.60;99.90;;;;;;5011351;28;20657;-87
2023/04/26 01:15:01;;;;;;;7.05;5.15;;;5.60;99.90;;;;;;5011558;28;20234;-87
2023/04/26 01:17:27;;;;;;;8.68;5.80;;;5.50;99.90;;;;;;5012693;28;20226;-87
2023/04/26 01:19:53;;;;;;;14.33;6.20;;;5.50;99.90;;;;;;5001796;28;20657;-87
2023/04/26 01:22:18;;;;;;;8.53;5.80;;;5.50;99.90;;;;;;5011389;28;20194;-87
2023/04/26 01:24:47;;;;;;;8.80;5.70;;;5.50;99.90;;;;;;5011103;28;20211;-87
2023/04/26 01:27:13;;;;;;;10.98;5.72;;;5.40;99.90;;;;;;5011366;28;20250;-87
2023/04/26 01:29:38;;;;;;;8.23;5.33;;;5.40;99.90;;;;;;5011068;28;20668;-86
2023/04/26 01:32:04;;;;;;;10.47;6.03;;;5.40;99.90;;;;;;5022572;28;20263;-87
2023/04/26 01:34:32;;;;;;;11.23;6.45;;;5.40;99.90;;;;;;5008190;28;20206;-87
2023/04/26 01:36:57;;;;;;;14.60;6.05;;;5.30;1.00;;;;;;5010857;28;20206;-86
2023/04/26 01:39:25;;;;;;;16.50;7.60;;;5.30;1.00;;;;;;5006401;28;20191;-87
2023/04/26 01:41:53;;;;;;;11.88;7.07;;;5.20;1.00;;;;;;5001159;28;20186;-86
2023/04/26 01:44:19;;;;;;;9.30;6.53;;;5.20;1.00;;;;;;5010768;28;20603;-88
2023/04/26 01:46:45;;;;;;;13.23;6.70;;;5.20;1.00;;;;;;5013171;28;20210;-87
2023/04/26 01:49:10;;;;;;;9.80;6.40;;;5.20;1.00;;;;;;5011506;28;20840;-86
2023/04/26 01:51:36;;;;;;;13.23;6.57;;;5.20;1.00;;;;;;5000952;28;20179;-87
2023/04/26 01:54:02;;;;;;;9.47;6.07;;;5.20;1.00;;;;;;5010391;28;20195;-86
2023/04/26 01:56:28;;;;;;;10.57;6.03;;;5.10;1.00;;;;;;5000179;28;20226;-86
2023/04/26 01:58:56;;;;;;;17.63;7.40;;;5.10;1.00;;;;;;5012402;28;20668;-86
2023/04/26 02:01:21;;;;;;;16.33;8.95;;;5.10;1.00;;;;;;5012141;28;20205;-87
2023/04/26 02:03:48;;;;;;;13.23;8.30;;;5.10;1.00;;;;;;5006142;28;20207;-86
2023/04/26 02:06:13;;;;;;;14.75;8.75;;;5.00;1.00;;;;;;5007955;28;20682;-87
2023/04/26 02:08:39;;;;;;;18.30;7.40;;;5.00;1.00;;;;;;5011449;28;20194;-86
2023/04/26 02:11:05;;;;;;;16.10;8.93;;;5.00;1.00;;;;;;5011303;28;20210;-87
2023/04/26 02:13:31;;;;;;;12.10;8.00;;;5.00;1.00;;;;;;5007869;28;20195;-87
2023/04/26 02:15:56;;;;;;;14.90;7.60;;;5.00;1.00;;;;;;5015368;28;20505;-86
2023/04/26 02:18:22;;;;;;;11.80;6.70;;;4.90;1.00;;;;;;5006814;28;20191;-87
2023/04/26 02:20:48;;;;;;;11.90;7.30;;;4.90;1.00;;;;;;5005990;28;20606;-87
2023/04/26 02:23:14;;;;;;;13.00;6.97;;;4.90;1.00;;;;;;5010777;28;20543;-86
2023/04/26 02:25:41;;;;;;;12.02;7.00;;;4.90;1.00;;;;;;5012819;28;20205;-86
2023/04/26 02:28:06;;;;;;;16.17;7.60;;;4.80;1.00;;;;;;5008436;28;20184;-85
2023/04/26 02:30:32;;;;;;;19.03;8.40;;;4.80;1.00;;;;;;5004941;28;20239;-88
2023/04/26 02:33:01;;;;;;;11.88;7.35;;;4.80;1.00;;;;;;5012774;28;20698;-87
2023/04/26 02:35:26;;;;;;;17.35;8.65;;;4.80;1.00;;;;;;5012523;28;20194;-87
2023/04/26 02:37:52;;;;;;;13.53;7.37;;;4.80;1.00;;;;;;5012765;28;20193;-86
2023/04/26 02:40:18;;;;;;;12.00;6.60;;;4.70;1.00;;;;;;5006938;28;20188;-85
2023/04/26 02:42:44;;;;;;;12.68;7.43;;;4.70;1.00;;;;;;5008820;28;20229;-87
2023/04/26 02:45:10;;;;;;;10.50;6.97;;;4.70;1.00;;;;;;5010170;28;20255;-87
2023/04/26 02:47:37;;;;;;;14.03;8.00;;;4.70;1.00;;;;;;5012249;28;20445;-87
2023/04/26 02:50:06;;;;;;;11.07;7.32;;;4.60;1.00;;;;;;5026011;28;20176;-87
2023/04/26 02:52:35;;;;;;;12.65;7.30;;;4.60;1.00;;;;;;5029428;28;20265;-89
2023/04/26 02:55:03;;;;;;;18.85;7.55;;;4.60;1.00;;;;;;5013288;28;20286;-86
2023/04/26 02:57:31;;;;;;;13.90;7.22;;;4.50;1.00;;;;;;5008117;28;20645;-87
2023/04/26 02:59:57;;;;;;;12.63;7.60;;;4.50;1.00;;;;;;5008561;28;20183;-87
2023/04/26 03:02:25;;;;;;;19.67;8.70;;;4.40;1.00;;;;;;5009945;28;20209;-86
2023/04/26 03:04:51;;;;;;;15.23;7.35;;;4.40;1.00;;;;;;5010888;28;21008;-86
2023/04/26 03:07:16;;;;;;;12.00;7.80;;;4.40;1.00;;;;;;5002995;28;20256;-87
2023/04/26 03:09:42;;;;;;;17.33;7.67;;;4.40;1.00;;;;;;5010997;28;20175;-86
2023/04/26 03:12:08;;;;;;;13.80;6.20;;;4.40;12.70;;;;;;5008678;28;20175;-86
2023/04/26 03:14:34;;;;;;;10.97;6.73;;;4.40;34.40;;;;;;5006920;28;20468;-86
2023/04/26 03:17:00;;;;;;;9.43;6.72;;;4.30;63.10;;;;;;5009910;28;20434;-86
2023/04/26 03:19:28;;;;;;;12.47;8.13;;;4.30;99.90;;;;;;5011299;28;20187;-87
2023/04/26 03:21:54;;;;;;;17.60;7.57;;;4.30;99.90;;;;;;5013051;28;20449;-86
2023/04/26 03:24:22;;;;;;;15.43;7.60;;;4.30;99.90;;;;;;5012695;28;20299;-88
2023/04/26 03:26:48;;;;;;;13.55;7.72;;;4.20;99.90;;;;;;5013294;28;20247;-86
2023/04/26 03:29:13;;;;;;;12.60;7.60;;;4.20;99.90;;;;;;5012553;28;20176;-87
2023/04/26 03:31:39;;;;;;;12.40;7.57;;;4.20;99.90;;;;;;5007903;28;20184;-87
2023/04/26 03:34:06;;;;;;;14.80;8.03;;;4.20;99.90;;;;;;5006817;28;20279;-85
2023/04/26 03:36:32;;;;;;;14.45;8.27;;;4.20;99.90;;;;;;5008598;28;20563;-86
2023/04/26 03:38:58;;;;;;;14.80;7.80;;;4.20;99.90;;;;;;5010321;28;20199;-86
2023/04/26 03:41:26;;;;;;;12.33;7.80;;;4.10;99.90;;;;;;5005179;28;20854;-88
2023/04/26 03:43:51;;;;;;;17.65;8.88;;;4.10;99.90;;;;;;5008767;28;20305;-87
2023/04/26 03:46:17;;;;;;;14.77;7.50;;;4.10;99.90;;;;;;5007522;28;20203;-87
2023/04/26 03:48:42;;;;;;;15.10;7.47;;;4.00;99.90;;;;;;5012147;28;20187;-86
2023/04/26 03:51:08;;;;;;;11.80;7.90;;;4.00;99.90;;;;;;5012722;28;20253;-87
2023/04/26 03:53:34;;;;;;;20.07;7.30;;;4.00;99.90;;;;;;5012793;28;20649;-86
2023/04/26 03:56:01;;;;;;;11.63;7.60;;;4.00;1.00;;;;;;5006687;28;20187;-87
2023/04/26 03:58:27;;;;;;;16.48;8.15;;;3.90;1.00;;;;;;5011915;28;20558;-86
2023/04/26 04:00:58;;;;;;;14.60;8.17;;;3.90;1.00;;;;;;5008543;28;20188;-87
2023/04/26 04:03:24;;;;;;;15.13;7.80;;;3.90;1.00;;;;;;5003927;28;20210;-87
2023/04/26 04:05:50;;;;;;;13.30;7.93;;;3.90;1.00;;;;;;5012628;28;20206;-87
2023/04/26 04:08:15;;;;;;;16.75;7.43;;;3.90;1.00;;;;;;5022967;28;20270;-87
2023/04/26 04:10:46;;;;;;;12.07;7.67;;;3.90;1.00;;;;;;5011857;28;20269;-86
2023/04/26 04:13:14;;;;;;;12.30;7.47;;;3.90;1.00;;;;;;5011234;28;20195;-87
2023/04/26 04:15:49;;;;;;;14.57;8.30;;;3.90;1.00;;;;;;5012203;28;20225;-87
2023/04/26 04:18:15;;;;;;;13.20;8.02;;;3.90;1.00;;;;;;5013596;28;20194;-88
2023/04/26 04:20:40;;;;;;;18.40;8.40;;;3.90;1.00;;;;;;5009404;28;20182;-87
2023/04/26 04:23:06;;;;;;;15.40;9.03;;;3.90;1.00;;;;;;5014966;28;20683;-86
2023/04/26 04:25:33;;;;;;;13.80;7.90;;;3.90;1.00;;;;;;5016148;28;20216;-86
2023/04/26 04:28:00;;;;;;;13.98;7.97;;;4.00;1.00;;;;;;5016637;28;20525;-86
2023/04/26 04:30:26;;;;;;;16.52;8.82;;;4.10;1.00;;;;;;5009836;28;20207;-87
2023/04/26 04:32:52;;;;;;;14.32;8.73;;;4.10;1.00;;;;;;5010297;28;20540;-87
2023/04/26 04:35:18;;;;;;;16.13;9.80;;;4.20;1.00;;;;;;5009953;28;20207;-87
2023/04/26 04:37:44;;;;;;;13.50;7.37;;;4.30;1.00;;;;;;5014091;28;20230;-87
2023/04/26 04:40:10;;;;;;;16.70;8.93;;;4.40;1.00;;;;;;5014032;28;20183;-86
2023/04/26 04:42:36;;;;;;;17.10;8.20;;;4.40;99.90;;;;;;5012260;28;20617;-86
2023/04/26 04:45:02;;;;;;;13.90;7.50;;;4.50;99.90;;;;;;5013037;28;20233;-87
2023/04/26 04:47:27;;;;;;;14.10;7.95;;;4.60;99.90;;;;;;5013268;28;20209;-87
2023/04/26 04:49:53;;;;;;;14.70;7.53;;;4.60;99.90;;;;;;5008672;28;20175;-87
2023/04/26 04:52:20;;;;;;;14.13;7.57;;;4.70;99.90;;;;;;5013344;28;20182;-87
2023/04/26 04:54:46;;;;;;;14.93;7.97;;;4.80;99.90;;;;;;5003442;28;20193;-86
2023/04/26 04:57:12;;;;;;;12.87;6.87;;;4.80;99.90;;;;;;5012266;28;20191;-86
2023/04/26 04:59:38;;;;;;;17.00;8.15;;;4.90;99.90;;;;;;5012005;28;20175;-86
2023/04/26 05:02:04;;;;;;;13.07;7.77;;;4.90;99.90;;;;;;5009813;28;20183;-86
2023/04/26 05:04:32;;;;;;;11.53;6.83;;;5.00;99.90;;;;;;5010326;28;20285;-87
2023/04/26 05:06:58;;;;;;;8.85;6.53;;;5.10;99.90;;;;;;5009386;28;20226;-86
2023/04/26 05:09:24;;;;;;;16.60;6.80;;;5.20;98.30;;;;;;5015430;28;20171;-86
2023/04/26 05:11:49;;;;;;;20.60;7.37;;;5.40;45.10;;;;;;5015619;28;20446;-86
2023/04/26 05:14:15;;;;;;;13.23;6.63;;;5.50;11.60;;;;;;5010310;28;20217;-87
2023/04/26 05:16:41;;;;;;;12.17;6.20;;;5.70;1.00;;;;;;5008800;28;20195;-87
2023/04/26 05:19:06;;;;;;;14.80;6.97;;;6.10;1.00;;;;;;5010926;28;20171;-87
2023/04/26 05:21:32;;;;;;;11.00;5.90;;;7.20;1.00;;;;;;5011757;28;20190;-87
2023/04/26 05:23:57;;;;;;;12.47;8.07;;;10.30;99.90;;;;;;5010149;28;20201;-88
2023/04/26 05:26:23;;;;;;;10.63;5.47;;;13.40;99.90;;;;;;4996743;28;20198;-87
2023/04/26 05:28:48;;;;;;;11.27;6.03;;;15.90;99.90;;;;;;5007383;28;20260;-87
2023/04/26 05:31:14;;;;;;;14.43;6.50;;;16.50;99.90;;;;;;5010288;28;20188;-88
2023/04/26 05:33:40;;;;;;;15.43;7.33;;;17.40;99.90;;;;;;5006049;28;20699;-88
2023/04/26 05:36:06;;;;;;;11.30;6.37;;;18.70;99.90;;;;;;5009027;28;20220;-87
2023/04/26 05:38:31;;;;;;;12.37;6.50;;;20.30;99.90;;;;;;5008695;28;20175;-88
2023/04/26 05:40:57;;;;;;;12.50;6.87;;;21.90;99.90;;;;;;5009902;28;20863;-88
2023/04/26 05:43:22;;;;;;;11.53;7.13;;;23.10;99.90;;;;;;5008095;28;20774;-88
2023/04/26 05:45:56;;;;;;;9.33;7.17;;;24.40;99.90;;;;;;5000244;28;20687;-89
2023/04/26 05:48:22;;;;;;;10.50;7.30;;;25.10;99.90;;;;;;5010852;28;20282;-89
2023/04/26 05:50:49;;;;;;;11.50;7.40;;;25.50;99.90;;;;;;5009202;28;20978;-85
2023/04/26 05:53:15;;;;;;;12.60;7.30;;;26.10;99.90;;;;;;5009930;28;20448;-86
2023/04/26 05:55:41;;;;;;;11.60;8.00;;;25.90;99.90;;;;;;5009832;28;21089;-84
2023/04/26 05:58:07;;;;;;;12.73;6.70;;;26.30;99.90;;;;;;5011199;28;20468;-86
2023/04/26 06:00:33;;;;;;;11.00;7.40;;;25.90;99.90;;;;;;5009989;28;20532;-87
2023/04/26 06:02:59;;;;;;;11.60;7.83;;;26.30;99.90;;;;;;5004408;28;20533;-84
2023/04/26 06:05:24;;;;;;;15.17;8.43;;;27.70;99.90;;;;;;5010902;28;20190;-85
2023/04/26 06:07:51;;;;;;;7.77;6.33;;;30.50;99.90;;;;;;5009767;28;20191;-85
2023/04/26 06:10:16;;;;;;;12.67;7.93;;;32.20;99.90;;;;;;5004440;28;20198;-84
2023/04/26 06:12:42;;;;;;;8.50;7.47;;;32.10;99.90;;;;;;5008513;28;20442;-85
2023/04/26 06:15:09;;;;;;;16.47;7.50;;;31.80;99.90;;;;;;5005356;28;20596;-85
2023/04/26 06:17:34;;;;;;;11.73;7.57;;;31.00;99.90;;;;;;5010267;28;20437;-85
2023/04/26 06:20:00;;;;;;;10.97;7.00;;;30.00;99.90;;;;;;5005417;28;20438;-83
2023/04/26 06:22:25;;;;;;;11.50;7.10;;;29.20;99.90;;;;;;5009109;28;20186;-85
2023/04/26 06:24:51;;;;;;;14.23;7.60;;;29.40;99.90;;;;;;5023015;28;20226;-85
2023/04/26 06:27:16;;;;;;;13.87;7.70;;;30.10;99.90;;;;;;5028985;28;20258;-85
2023/04/26 06:29:42;;;;;;;16.93;6.77;;;30.60;99.90;;;;;;5018949;28;20187;-85
2023/04/26 06:32:08;;;;;;;13.87;7.27;;;30.40;99.90;;;;;;5011217;28;20178;-84
2023/04/26 06:34:36;;;;;;;10.60;7.00;;;31.20;99.90;;;;;;5008716;28;20202;-86
2023/04/26 06:37:06;;;;;;;11.60;6.83;;;32.20;99.90;;;;;;5005308;28;20195;-85
2023/04/26 06:39:37;;;;;;;11.27;7.27;;;32.40;99.90;;;;;;4992544;28;20528;-85
2023/04/26 06:42:09;;;;;;;13.77;8.40;;;30.90;99.90;;;;;;5007258;28;20468;-85
2023/04/26 06:44:37;;;;;;;15.23;8.10;;;29.30;99.90;;;;;;5014446;28;20442;-86
2023/04/26 06:47:03;;;;;;;13.80;8.10;;;27.90;99.90;;;;;;5009939;28;20907;-86
2023/04/26 06:49:28;;;;;;;11.73;7.40;;;27.40;98.90;;;;;;5009976;28;20541;-86
2023/04/26 06:51:54;;;;;;;12.40;7.33;;;27.00;98.00;;;;;;5023423;28;20225;-87
2023/04/26 06:54:27;;;;;;;13.03;8.27;;;26.50;96.30;;;;;;5010448;28;20735;-86
2023/04/26 06:56:53;;;;;;;10.93;7.13;;;25.50;94.40;;;;;;5011729;28;20186;-87
2023/04/26 06:59:21;;;;;;;12.07;7.77;;;24.90;93.00;;;;;;5004073;28;20512;-86
2023/04/26 07:01:50;;;;;;;12.27;7.70;;;24.70;92.40;;;;;;5010651;28;20191;-85
2023/04/26 07:04:17;;;;;;;13.23;7.57;;;25.30;94.30;;;;;;5014864;28;20469;-86
2023/04/26 07:06:48;;;;;;;16.13;8.03;;;25.60;95.60;;;;;;5008872;28;20492;-85
2023/04/26 07:09:14;;;;;;;14.80;8.63;;;26.00;95.70;;;;;;5009200;28;20446;-85
2023/04/26 07:11:39;;;;;;;13.27;7.47;;;26.00;99.90;;;;;;5014348;28;20988;-86
2023/04/26 07:14:10;;;;;;;11.70;6.37;;;25.30;93.00;;;;;;5007937;28;20225;-85
2023/04/26 07:16:36;;;;;;;12.37;7.53;;;24.30;90.20;;;;;;5018280;28;20186;-85
2023/04/26 07:19:02;;;;;;;12.63;6.17;;;23.20;85.30;;;;;;5017259;28;20804;-86
2023/04/26 07:21:27;;;;;;;13.80;7.60;;;22.60;82.30;;;;;;5023701;28;20190;-86
2023/04/26 07:23:56;;;;;;;9.47;6.47;;;22.30;81.70;;;;;;5011824;28;20238;-85
2023/04/26 07:26:23;;;;;;;13.60;6.70;;;22.00;81.20;;;;;;5019230;28;20309;-86
2023/04/26 07:28:50;;;;;;;11.23;6.77;;;21.90;82.90;;;;;;5016088;28;20527;-85
2023/04/26 07:31:16;;;;;;;11.27;6.10;;;21.10;76.60;;;;;;5013334;28;20456;-86
2023/04/26 07:33:42;;;;;;;15.87;6.37;;;20.60;73.60;;;;;;5016934;28;20453;-85
2023/04/26 07:36:07;;;;;;;13.53;7.43;;;20.10;74.00;;;;;;5017294;28;20202;-85
2023/04/26 07:38:33;;;;;;;13.57;7.10;;;19.40;68.90;;;;;;5017670;28;20962;-85
2023/04/26 07:41:00;;;;;;;10.90;7.17;;;19.10;68.70;;;;;;5016182;28;20205;-86
2023/04/26 07:43:26;;;;;;;11.00;7.40;;;19.30;71.00;;;;;;5014246;28;20205;-85
2023/04/26 07:45:51;;;;;;;13.63;7.57;;;19.70;74.70;;;;;;5010259;28;20560;-85
2023/04/26 07:48:17;;;;;;;19.70;8.30;;;20.00;76.60;;;;;;5019256;28;20453;-85
2023/04/26 07:50:43;;;;;;;12.20;7.33;;;20.60;82.30;;;;;;5017167;28;20597;-85
2023/04/26 07:53:08;;;;;;;13.33;6.80;;;21.50;86.90;;;;;;5016625;28;20182;-85
2023/04/26 07:55:34;;;;;;;12.07;7.43;;;22.30;90.70;;;;;;5016344;28;20193;-85
2023/04/26 07:57:59;;;;;;;9.80;7.77;;;22.50;90.90;;;;;;5020691;28;20568;-85
2023/04/26 08:00:25;;;;;;;10.60;6.90;;;22.30;90.00;;;;;;5016551;28;20185;-85
2023/04/26 08:02:51;;;;;;;11.60;6.70;;;22.60;90.50;;;;;;5014565;28;20190;-82
2023/04/26 08:05:17;;;;;;;9.40;6.53;;;23.00;91.30;;;;;;5016168;28;20304;-83
2023/04/26 08:07:43;;;;;;;11.50;6.53;;;22.70;90.40;;;;;;5015872;28;20477;-84
2023/04/26 08:10:09;;;;;;;7.60;5.90;;;22.30;88.80;;;;;;5013913;28;20190;-84
2023/04/26 08:12:36;;;;;;;9.67;5.87;;;22.30;89.60;;;;;;5012017;28;20188;-82
2023/04/26 08:15:07;;;;;;;9.33;5.50;;;22.30;88.60;;;;;;5017163;28;20471;-83
2023/04/26 08:17:33;;;;;;;8.23;5.40;;;21.90;86.30;;;;;;5016112;28;20439;-84
2023/04/26 08:19:58;;;;;;;14.03;7.30;;;21.40;82.30;;;;;;5015648;28;20432;-85
2023/04/26 08:22:24;;;;;;;11.20;6.33;;;21.00;80.70;;;;;;5016747;28;20700;-84
2023/04/26 08:24:54;;;;;;;12.37;6.50;;;21.50;83.50;;;;;;5016039;28;20206;-84
2023/04/26 08:27:20;;;;;;;11.37;5.43;;;22.60;90.10;;;;;;5018593;28;20464;-85
2023/04/26 08:29:46;;;;;;;11.03;5.80;;;24.10;93.40;;;;;;5013531;28;21015;-85
2023/04/26 08:32:11;;;;;;;9.23;5.37;;;25.30;95.80;;;;;;5035502;28;20420;-84
2023/04/26 08:34:37;;;;;;;10.20;5.20;;;25.30;95.30;;;;;;5015695;28;20453;-84
2023/04/26 08:37:03;;;;;;;9.57;5.50;;;24.50;92.60;;;;;;5020781;28;20750;-84
2023/04/26 08:39:28;;;;;;;7.97;5.90;;;23.40;87.30;;;;;;5016533;28;20177;-83
2023/04/26 08:41:56;;;;;;;12.93;6.00;;;22.50;80.10;;;;;;5019882;28;21623;-85
2023/04/26 08:44:23;;;;;;;16.10;6.47;;;21.90;78.80;;;;;;5014132;28;20208;-84
2023/04/26 08:47:13;;;;;;;12.00;6.37;;;21.70;78.90;;;;;;5011778;28;20494;-85
2023/04/26 08:49:38;;;;;;;10.17;4.50;;;23.10;87.30;;;;;;5016133;28;20443;-85
2023/04/26 08:52:09;;;;;;;13.30;5.70;;;25.50;93.80;;;;;;5012085;28;20508;-85
2023/04/26 08:54:36;;;;;;;12.00;5.73;;;26.60;95.80;;;;;;5012444;28;20211;-86
2023/04/26 08:57:02;;;;;;;6.40;4.67;;;26.80;94.80;;;;;;5009664;28;20520;-85
2023/04/26 08:59:32;;;;;;;8.43;3.90;;;27.50;95.60;;;;;;5017876;28;20449;-85
2023/04/26 09:01:59;;;;;;;8.90;4.73;;;27.50;94.00;;;;;;5011948;28;20446;-85
2023/04/26 09:04:24;;;;;;;7.63;3.60;;;26.60;91.20;;;;;;5021702;28;20469;-85
2023/04/26 09:06:54;;;;;;;8.23;3.50;;;26.10;89.70;;;;;;5017454;28;20496;-85
2023/04/26 09:09:21;;;;;;;5.17;2.80;;;25.40;82.80;;;;;;5009202;28;20233;-85
2023/04/26 09:11:54;;;;;;;4.73;3.03;;;24.80;79.70;;;;;;5008833;28;20490;-85
2023/04/26 09:14:20;;;;;;;7.97;3.20;;;23.50;70.70;;;;;;5014063;28;20452;-85
2023/04/26 09:16:46;;;;;;;7.50;3.10;;;22.40;65.70;;;;;;5019471;28;20436;-86
2023/04/26 09:19:11;;;;;;;9.07;4.57;;;21.50;60.90;;;;;;5019710;28;20436;-85
2023/04/26 09:21:43;;;;;;;10.80;4.80;;;20.90;58.50;;;;;;5014555;28;20273;-86
2023/04/26 09:24:09;;;;;;;9.70;5.07;;;20.40;57.70;;;;;;5026800;28;20206;-85
2023/04/26 09:26:35;;;;;;;7.33;3.93;;;21.20;61.30;;;;;;5014470;28;20834;-85
2023/04/26 09:29:14;;;;;;;9.43;3.20;;;22.20;67.80;;;;;;5013093;28;20177;-84
2023/04/26 09:31:48;;;;;;;5.03;2.80;;;23.10;70.50;;;;;;5009245;28;20182;-85
2023/04/26 09:34:16;;;;;;;6.00;3.47;;;22.90;69.00;;;;;;5013090;28;20536;-82
2023/04/26 09:36:56;;;;;;;8.00;3.70;;;22.70;68.70;;;;;;5018359;28;20540;-85
2023/04/26 09:39:39;;;;;;;9.60;4.00;;;22.20;65.00;;;;;;5009108;28;20527;-85
2023/04/26 09:42:05;;;;;;;8.70;4.10;;;22.00;65.50;;;;;;5013184;28;20499;-84
2023/04/26 09:44:31;;;;;;;7.17;3.37;;;22.30;65.70;;;;;;5014008;28;20474;-84
2023/04/26 09:46:57;;;;;;;8.80;3.80;;;24.40;77.90;;;;;;5008614;28;20469;-84
2023/04/26 09:49:26;;;;;;;12.73;3.80;;;25.10;80.30;;;;;;5014236;28;20492;-85
2023/04/26 09:52:05;;;;;;;6.03;3.73;;;25.50;80.50;;;;;;5010970;28;20422;-84
2023/04/26 09:55:03;;;;;;;8.10;4.37;;;27.10;86.40;;;;;;5013011;28;21066;-84
2023/04/26 09:57:28;;;;;;;10.20;4.10;;;30.10;93.40;;;;;;5019413;28;20490;-86
2023/04/26 09:59:55;;;;;;;6.00;3.33;;;30.70;93.20;;;;;;5025664;28;20442;-84
2023/04/26 10:02:27;;;;;;;7.17;4.60;;;30.10;90.00;;;;;;5037338;28;20179;-85
2023/04/26 10:04:55;;;;;;;8.17;4.13;;;28.90;82.80;;;;;;5009196;28;20535;-85
2023/04/26 10:07:22;;;;;;;10.03;4.10;;;27.80;76.00;;;;;;5009300;28;20462;-85
2023/04/26 10:09:49;;;;;;;4.83;3.77;;;26.70;70.40;;;;;;5005893;28;20524;-85
2023/04/26 10:12:16;;;;;;;7.97;4.33;;;25.80;65.80;;;;;;5006361;28;20550;-86
2023/04/26 10:14:43;;;;;;;8.03;3.90;;;25.10;61.90;;;;;;5011428;28;20457;-85
2023/04/26 10:17:10;;;;;;;8.77;4.20;;;24.90;61.70;;;;;;5007023;28;20452;-86
2023/04/26 10:19:37;;;;;;;6.73;4.10;;;26.60;70.00;;;;;;5009379;28;20441;-86
2023/04/26 10:22:24;;;;;;;8.40;4.20;;;28.90;79.50;;;;;;5006826;28;20434;-86
2023/04/26 10:24:52;;;;;;;10.20;4.27;;;30.40;82.90;;;;;;5006807;28;20457;-86
2023/04/26 10:27:43;;;;;;;10.73;3.70;;;30.50;81.20;;;;;;4999969;28;20873;-85
2023/04/26 10:30:29;;;;;;;6.00;3.80;;;30.60;77.30;;;;;;5010057;28;20441;-86
2023/04/26 10:32:54;;;;;;;7.83;3.10;;;30.50;74.50;;;;;;5012099;28;21020;-85
2023/04/26 10:35:21;;;;;;;7.30;3.47;;;30.30;73.20;;;;;;5010713;28;20505;-86
2023/04/26 10:37:59;;;;;;;5.37;2.57;;;30.60;71.40;;;;;;5003904;28;20195;-84
2023/04/26 10:40:39;;;;;;;4.90;2.80;;;31.30;72.50;;;;;;5009955;28;20430;-85
2023/04/26 10:43:07;;;;;;;5.30;2.77;;;31.90;72.90;;;;;;5009930;28;20437;-86
2023/04/26 10:45:33;;;;;;;3.37;2.40;;;31.60;67.90;;;;;;5008643;28;20569;-85
2023/04/26 10:48:30;;;;;;;5.00;2.03;;;30.70;79.60;;;;;;5009192;28;20545;-85
2023/04/26 10:51:04;;;;;;;7.60;2.27;;;29.70;57.60;;;;;;5013779;28;20653;-85
2023/04/26 10:53:31;;;;;;;4.90;2.87;;;28.60;54.20;;;;;;5010559;28;20457;-84
2023/04/26 10:55:57;;;;;;;7.77;2.30;;;27.80;51.10;;;;;;5009321;28;20966;-85
2023/04/26 10:58:29;;;;;;;3.70;2.00;;;27.50;50.50;;;;;;5014525;28;20426;-85
2023/04/26 11:01:15;;;;;;;3.20;2.10;;;26.90;47.80;;;;;;5011300;28;20199;-86
2023/04/26 11:03:40;;;;;;;9.33;2.87;;;26.30;45.00;;;;;;5011947;28;20560;-85
2023/04/26 11:06:12;;;;;;;6.43;3.07;;;25.70;43.40;;;;;;5009224;28;20555;-83
2023/04/26 11:08:38;;;;;;;4.70;2.10;;;25.40;42.90;;;;;;5015108;28;20269;-85
2023/04/26 11:11:10;;;;;;;6.70;2.60;;;25.00;41.20;;;;;;5014770;28;20469;-84
2023/04/26 11:13:38;;;;;;;6.03;2.90;;;24.50;40.20;;;;;;5002054;28;20460;-84
2023/04/26 11:16:08;;;;;;;6.67;3.23;;;24.20;39.00;;;;;;5013863;28;20435;-84
2023/04/26 11:18:36;;;;;;;8.60;2.97;;;24.00;42.70;;;;;;5020303;28;20451;-85
2023/04/26 11:21:03;;;;;;;6.47;2.93;;;24.10;40.50;;;;;;5018859;28;20441;-85
2023/04/26 11:23:29;;;;;;;4.70;2.90;;;24.30;40.50;;;;;;5020206;28;20473;-84
2023/04/26 11:26:03;;;;;;;7.70;3.40;;;24.30;54.00;;;;;;5019407;28;21020;-84
2023/04/26 11:28:30;;;;;;;5.03;2.23;;;24.40;41.50;;;;;;5019130;28;20437;-85
2023/04/26 11:30:56;;;;;;;5.70;2.83;;;24.50;41.80;;;;;;5011604;28;20804;-84
2023/04/26 11:33:22;;;;;;;7.40;3.00;;;24.60;41.60;;;;;;5017427;28;20919;-85
2023/04/26 11:35:49;;;;;;;3.60;2.63;;;24.40;41.70;;;;;;5016552;28;20449;-84
2023/04/26 11:38:16;;;;;;;5.87;3.60;;;24.10;39.90;;;;;;5012954;28;20441;-84
2023/04/26 11:40:42;;;;;;;4.70;3.43;;;23.80;39.20;;;;;;5017452;28;20442;-84
2023/04/26 11:43:08;;;;;;;5.40;2.67;;;23.50;38.60;;;;;;5015075;28;20444;-84
2023/04/26 11:45:35;;;;;;;5.47;3.13;;;23.80;40.70;;;;;;5012428;28;20553;-84
2023/04/26 11:48:03;;;;;;;7.13;3.50;;;24.20;41.50;;;;;;5017595;28;20515;-86
2023/04/26 11:50:33;;;;;;;5.63;2.93;;;24.40;41.40;;;;;;5014399;28;20769;-85
2023/04/26 11:52:59;;;;;;;7.40;3.40;;;24.20;40.40;;;;;;5017299;28;20532;-85
2023/04/26 11:55:33;;;;;;;4.90;3.23;;;24.00;40.10;;;;;;5019349;28;20520;-85
2023/04/26 11:57:59;;;;;;;4.83;3.20;;;24.10;40.30;;;;;;5022526;28;20951;-85
2023/04/26 12:00:25;;;;;;;5.93;3.53;;;24.30;41.40;;;;;;5033864;28;20433;-85
2023/04/26 12:02:52;;;;;;;5.07;3.00;;;24.70;43.30;;;;;;5020242;28;20449;-86
2023/04/26 12:05:31;;;;;;;6.60;3.37;;;24.70;42.80;;;;;;5019491;28;20457;-84
2023/04/26 12:07:59;;;;;;;9.93;5.00;;;24.00;40.60;;;;;;5012392;28;20448;-85
2023/04/26 12:10:24;;;;;;;10.80;3.90;;;23.70;39.20;;;;;;5021599;28;20435;-84
2023/04/26 12:12:51;;;;;;;6.83;3.20;;;23.60;39.30;;;;;;5014222;28;20439;-86
2023/04/26 12:15:18;;;;;;;6.90;3.13;;;23.60;39.60;;;;;;5018693;28;20670;-85
2023/04/26 12:18:09;;;;;;;6.40;3.63;;;23.20;39.00;;;;;;5020657;28;20458;-84
2023/04/26 12:20:37;;;;;;;7.53;4.00;;;22.80;37.30;;;;;;5014308;28;20446;-85
2023/04/26 12:23:05;;;;;;;5.30;2.90;;;22.70;36.90;;;;;;5017627;28;20437;-84
2023/04/26 12:25:33;;;;;;;5.20;3.40;;;22.70;37.90;;;;;;5021532;28;20445;-85
2023/04/26 12:27:59;;;;;;;4.63;3.20;;;22.70;38.20;;;;;;5019377;28;20785;-84
2023/04/26 12:30:27;;;;;;;8.30;3.90;;;22.40;37.50;;;;;;5015085;28;20458;-85
2023/04/26 12:32:53;;;;;;;7.60;3.60;;;21.90;35.60;;;;;;5019260;28;20468;-85
2023/04/26 12:35:18;;;;;;;8.20;3.10;;;21.40;34.40;;;;;;5015149;28;20466;-85
2023/04/26 12:37:44;;;;;;;5.80;3.60;;;21.70;35.30;;;;;;5019238;28;20434;-85
2023/04/26 12:40:10;;;;;;;9.80;4.33;;;22.30;38.70;;;;;;5018645;28;20228;-85
2023/04/26 12:42:36;;;;;;;8.00;3.73;;;22.40;38.80;;;;;;5018794;28;20825;-85
2023/04/26 12:45:02;;;;;;;5.43;3.90;;;22.00;37.20;;;;;;5018653;28;20464;-85
2023/04/26 12:47:30;;;;;;;4.73;3.70;;;21.90;38.30;;;;;;5009247;28;20221;-86
2023/04/26 12:49:55;;;;;;;7.93;4.07;;;22.70;41.50;;;;;;5018759;28;20434;-85